Poltava, Ukraine
Current Conditions -  °F | °C
As of 1:30 PM on Sunday 21 Dec 2014 (Local Time) from UKHH Reporting Station
Clear Clear  
Wind Chill: -1°   Ceiling: Unl
Heat Index:   Visibility: 6mi
Dew Point:   Wind: 7mph
Humidity: 87%   Direction: 190°S
Pressure: 29.8"   Gusts: NA
Location:  49.58°N, 34.57°E
Report Text: UKHH 211030Z 19003MPS CAVOK 02/00 Q1009 25710235 NOSIG
Loading
Personal Weather Stations






























Interactive Weather Map New forecast layout! Learn more

10-Day Weather Forecast

Advertisements
Track Severe Weather on mobile